createdAt,value
2019-02-28T00:00:06.555Z,32.30
2019-02-28T00:00:16.657Z,32.30
2019-02-28T00:00:28.450Z,32.30
2019-02-28T00:00:43.075Z,32.30
2019-02-28T00:00:57.191Z,32.30
2019-02-28T00:01:11.852Z,32.20
2019-02-28T00:01:20.694Z,32.30
2019-02-28T00:01:33.016Z,32.90
2019-02-28T00:01:48.548Z,32.30
2019-02-28T00:02:00.323Z,32.30
2019-02-28T00:02:12.086Z,32.30
2019-02-28T00:02:26.252Z,32.40
2019-02-28T00:02:37.999Z,32.30
2019-02-28T00:02:53.880Z,32.40
2019-02-28T00:03:07.138Z,32.30
2019-02-28T00:03:20.332Z,32.30
2019-02-28T00:03:32.655Z,32.30
2019-02-28T00:03:44.519Z,32.30
2019-02-28T00:03:59.149Z,32.30
2019-02-28T00:04:10.423Z,32.30
2019-02-28T00:04:22.167Z,32.30
2019-02-28T00:04:33.914Z,32.30
2019-02-28T00:04:48.000Z,32.40
2019-02-28T00:04:59.746Z,32.30
2019-02-28T00:05:11.492Z,32.30
2019-02-28T00:05:23.246Z,32.30
2019-02-28T00:05:37.937Z,32.80
2019-02-28T00:05:46.743Z,32.30
2019-02-28T00:05:58.489Z,32.30
2019-02-28T00:06:12.799Z,32.40
2019-02-28T00:06:24.323Z,32.30
2019-02-28T00:06:36.068Z,32.30
2019-02-28T00:06:50.151Z,32.20
2019-02-28T00:07:01.904Z,32.30
2019-02-28T00:07:17.594Z,32.30
2019-02-28T00:07:25.387Z,32.40
2019-02-28T00:07:37.132Z,32.40
2019-02-28T00:07:49.628Z,32.40
2019-02-28T00:08:00.621Z,32.40
2019-02-28T00:08:12.383Z,32.30
2019-02-28T00:08:24.132Z,32.40
2019-02-28T00:08:35.887Z,32.40
2019-02-28T00:08:51.077Z,32.50
2019-02-28T00:09:01.722Z,33.10
2019-02-28T00:09:13.467Z,32.50
2019-02-28T00:09:27.623Z,32.50
2019-02-28T00:09:39.371Z,32.40
2019-02-28T00:09:51.117Z,32.40
2019-02-28T00:10:03.745Z,32.40
2019-02-28T00:10:19.413Z,32.50
2019-02-28T00:10:31.727Z,32.50
2019-02-28T00:10:43.573Z,32.50
2019-02-28T00:10:55.337Z,32.40
2019-02-28T00:11:07.170Z,32.40
2019-02-28T00:11:18.914Z,32.40
2019-02-28T00:11:30.661Z,32.40
2019-02-28T00:11:42.443Z,32.50
2019-02-28T00:11:54.185Z,32.40
2019-02-28T00:12:05.938Z,32.30
2019-02-28T00:12:17.994Z,32.30
2019-02-28T00:12:29.741Z,32.30
2019-02-28T00:12:41.491Z,32.40
2019-02-28T00:12:53.234Z,32.30
2019-02-28T00:13:04.978Z,32.30
2019-02-28T00:13:21.407Z,32.40
2019-02-28T00:13:28.501Z,32.40
2019-02-28T00:13:40.245Z,32.40
2019-02-28T00:13:52.340Z,32.40
2019-02-28T00:14:03.744Z,32.40
2019-02-28T00:14:15.496Z,32.40
2019-02-28T00:14:27.920Z,32.40
2019-02-28T00:14:38.979Z,32.40
2019-02-28T00:14:50.724Z,32.40
2019-02-28T00:15:02.470Z,32.50
2019-02-28T00:15:14.232Z,32.40
2019-02-28T00:15:25.977Z,32.40
2019-02-28T00:15:37.728Z,32.50
2019-02-28T00:15:49.477Z,32.40
2019-02-28T00:16:03.404Z,32.50
2019-02-28T00:16:12.974Z,32.30
2019-02-28T00:16:24.897Z,32.30
2019-02-28T00:16:36.638Z,32.30
2019-02-28T00:16:48.382Z,32.40
2019-02-28T00:17:00.147Z,32.30
2019-02-28T00:17:11.883Z,32.40
2019-02-28T00:17:23.631Z,32.40
2019-02-28T00:17:35.415Z,32.50
2019-02-28T00:17:47.185Z,32.40
2019-02-28T00:17:58.932Z,32.40
2019-02-28T00:18:10.676Z,32.40
2019-02-28T00:18:22.436Z,32.50
2019-02-28T00:18:34.171Z,32.40
2019-02-28T00:18:49.516Z,32.50
2019-02-28T00:18:57.662Z,32.50
2019-02-28T00:19:11.744Z,32.90
2019-02-28T00:19:23.957Z,32.40
2019-02-28T00:19:35.270Z,32.50
2019-02-28T00:19:47.074Z,32.50
2019-02-28T00:19:59.000Z,32.50
2019-02-28T00:20:13.086Z,32.50
2019-02-28T00:20:24.833Z,32.40
2019-02-28T00:20:36.686Z,32.40
2019-02-28T00:20:50.664Z,32.90
2019-02-28T00:21:06.096Z,32.50
2019-02-28T00:21:14.185Z,32.50
2019-02-28T00:21:25.899Z,32.50
2019-02-28T00:21:40.539Z,32.50
2019-02-28T00:21:49.391Z,32.50
2019-02-28T00:22:03.472Z,32.50
2019-02-28T00:22:15.557Z,32.50
2019-02-28T00:22:26.968Z,32.50
2019-02-28T00:22:41.052Z,32.60
2019-02-28T00:22:52.802Z,32.40
2019-02-28T00:23:04.556Z,32.40
2019-02-28T00:23:19.239Z,32.50
2019-02-28T00:23:30.390Z,32.40
2019-02-28T00:23:42.135Z,32.40
2019-02-28T00:23:57.290Z,32.50
2019-02-28T00:24:07.963Z,32.30
2019-02-28T00:24:19.706Z,32.30
2019-02-28T00:24:31.451Z,32.30
2019-02-28T00:24:43.195Z,32.30
2019-02-28T00:24:54.939Z,32.30
2019-02-28T00:25:09.039Z,32.50
2019-02-28T00:25:20.798Z,32.30
2019-02-28T00:25:37.529Z,32.30
2019-02-28T00:25:44.296Z,32.30
2019-02-28T00:25:58.381Z,32.10
2019-02-28T00:26:11.569Z,32.30
2019-02-28T00:26:21.906Z,32.40
2019-02-28T00:26:33.655Z,32.40
2019-02-28T00:26:48.008Z,32.00
2019-02-28T00:26:59.512Z,32.20
2019-02-28T00:27:11.256Z,32.30
2019-02-28T00:27:23.002Z,32.30
2019-02-28T00:27:34.752Z,32.30
2019-02-28T00:27:46.491Z,32.30
2019-02-28T00:27:58.236Z,32.30
2019-02-28T00:28:12.321Z,32.30
2019-02-28T00:28:25.781Z,32.30
2019-02-28T00:28:35.836Z,32.30
2019-02-28T00:28:47.588Z,32.30
2019-02-28T00:29:00.411Z,32.40
2019-02-28T00:29:11.075Z,32.30
2019-02-28T00:29:22.823Z,32.30
2019-02-28T00:29:36.902Z,32.80
2019-02-28T00:29:48.683Z,32.10
2019-02-28T00:30:00.445Z,32.10
2019-02-28T00:30:12.181Z,32.20
2019-02-28T00:30:26.258Z,32.90
2019-02-28T00:30:40.724Z,32.30
2019-02-28T00:30:49.745Z,32.90
2019-02-28T00:31:01.493Z,32.40
2019-02-28T00:31:15.303Z,32.30
2019-02-28T00:31:25.017Z,32.30
2019-02-28T00:31:36.763Z,32.30
2019-02-28T00:31:50.853Z,32.30
2019-02-28T00:32:02.596Z,32.30
2019-02-28T00:32:14.341Z,32.30
2019-02-28T00:32:28.421Z,32.20
2019-02-28T00:32:40.165Z,32.10
2019-02-28T00:32:51.909Z,32.10
2019-02-28T00:33:03.669Z,32.20
2019-02-28T00:33:15.404Z,32.20
2019-02-28T00:33:27.150Z,32.10
2019-02-28T00:33:41.230Z,32.90
2019-02-28T00:33:52.979Z,32.20
2019-02-28T00:34:05.577Z,32.30
2019-02-28T00:34:18.818Z,32.80
2019-02-28T00:34:30.553Z,32.30
2019-02-28T00:34:42.299Z,32.30
2019-02-28T00:34:54.047Z,32.40
2019-02-28T00:35:05.799Z,32.30
2019-02-28T00:35:17.545Z,32.40
2019-02-28T00:35:31.629Z,32.40
2019-02-28T00:35:44.662Z,32.30
2019-02-28T00:35:55.159Z,32.30
2019-02-28T00:36:06.904Z,32.30
2019-02-28T00:36:20.985Z,32.30
2019-02-28T00:36:32.730Z,32.20
2019-02-28T00:36:44.481Z,32.20
2019-02-28T00:36:56.222Z,32.20
2019-02-28T00:37:07.975Z,32.30
2019-02-28T00:37:19.715Z,32.20
2019-02-28T00:37:31.459Z,32.20
2019-02-28T00:37:43.206Z,32.30
2019-02-28T00:37:56.626Z,32.30
2019-02-28T00:38:06.704Z,32.30
2019-02-28T00:38:20.784Z,32.40
2019-02-28T00:38:32.527Z,32.30
2019-02-28T00:38:44.274Z,32.30
2019-02-28T00:38:59.949Z,31.90
2019-02-28T00:39:11.066Z,32.40
2019-02-28T00:39:22.813Z,32.30
2019-02-28T00:39:35.444Z,32.30
2019-02-28T00:39:48.640Z,32.10
2019-02-28T00:40:00.385Z,32.40
2019-02-28T00:40:12.154Z,32.40
2019-02-28T00:40:23.969Z,32.40
2019-02-28T00:40:38.498Z,32.40
2019-02-28T00:40:47.469Z,32.40
2019-02-28T00:40:59.211Z,32.50
2019-02-28T00:41:10.953Z,32.40
2019-02-28T00:41:22.741Z,32.50
2019-02-28T00:41:34.485Z,32.40
2019-02-28T00:41:48.621Z,32.30
2019-02-28T00:42:00.424Z,32.20
2019-02-28T00:42:12.168Z,32.20
2019-02-28T00:42:26.250Z,32.40
2019-02-28T00:42:37.998Z,32.30
2019-02-28T00:42:50.865Z,32.30
2019-02-28T00:43:03.829Z,32.30
2019-02-28T00:43:15.575Z,32.20
2019-02-28T00:43:27.328Z,32.30
2019-02-28T00:43:41.400Z,33.10
2019-02-28T00:43:53.147Z,32.30
2019-02-28T00:44:04.891Z,32.40
2019-02-28T00:44:16.636Z,32.40
2019-02-28T00:44:31.239Z,32.30
2019-02-28T00:44:40.144Z,32.30
2019-02-28T00:44:54.210Z,31.90
2019-02-28T00:45:05.962Z,32.20
2019-02-28T00:45:17.712Z,32.40
2019-02-28T00:45:36.279Z,32.40
2019-02-28T00:45:43.552Z,32.30
2019-02-28T00:45:55.293Z,32.30
2019-02-28T00:46:10.104Z,32.20
2019-02-28T00:46:21.118Z,32.10
2019-02-28T00:46:32.863Z,32.10
2019-02-28T00:46:45.399Z,32.10
2019-02-28T00:46:56.357Z,32.20
2019-02-28T00:47:08.141Z,32.20
2019-02-28T00:47:19.889Z,32.20
2019-02-28T00:47:33.964Z,32.00
2019-02-28T00:47:47.491Z,31.90
2019-02-28T00:47:57.458Z,32.00
2019-02-28T00:48:11.538Z,31.90
2019-02-28T00:48:23.284Z,31.80
2019-02-28T00:48:35.029Z,31.90
2019-02-28T00:48:49.133Z,32.60
2019-02-28T00:49:00.909Z,32.10
2019-02-28T00:49:12.626Z,32.10
2019-02-28T00:49:26.706Z,32.10
2019-02-28T00:49:38.455Z,32.00
2019-02-28T00:49:50.202Z,32.00
2019-02-28T00:50:04.284Z,32.20
2019-02-28T00:50:16.037Z,32.00
2019-02-28T00:50:28.377Z,32.10
2019-02-28T00:50:41.863Z,32.30
2019-02-28T00:50:53.609Z,32.20
2019-02-28T00:51:05.353Z,32.10
2019-02-28T00:51:19.469Z,32.00
2019-02-28T00:51:31.227Z,32.10
2019-02-28T00:51:42.974Z,32.10
2019-02-28T00:51:54.718Z,32.20
2019-02-28T00:52:08.809Z,31.70
2019-02-28T00:52:20.554Z,32.10
2019-02-28T00:52:35.464Z,32.10
2019-02-28T00:52:46.385Z,32.10
2019-02-28T00:52:58.128Z,32.00
2019-02-28T00:53:09.876Z,31.80
2019-02-28T00:53:23.957Z,31.80
2019-02-28T00:53:37.376Z,31.70
2019-02-28T00:53:47.446Z,31.70
2019-02-28T00:53:59.194Z,32.00
2019-02-28T00:54:11.116Z,32.00
2019-02-28T00:54:25.353Z,32.80
2019-02-28T00:54:43.224Z,32.00
2019-02-28T00:54:51.176Z,31.90
2019-02-28T00:55:02.919Z,31.80
2019-02-28T00:55:15.563Z,31.80
2019-02-28T00:55:26.411Z,31.70
2019-02-28T00:55:38.158Z,31.60
2019-02-28T00:55:52.238Z,32.30
2019-02-28T00:56:03.992Z,31.50
2019-02-28T00:56:17.512Z,31.50
2019-02-28T00:56:29.827Z,31.90
2019-02-28T00:56:41.571Z,31.40
2019-02-28T00:56:53.319Z,31.60
2019-02-28T00:57:07.403Z,32.30
2019-02-28T00:57:19.153Z,31.80
2019-02-28T00:57:30.899Z,31.80
2019-02-28T00:57:44.981Z,32.40
2019-02-28T00:57:56.723Z,31.60
2019-02-28T00:58:08.471Z,31.50
2019-02-28T00:58:20.217Z,31.50
2019-02-28T00:58:32.005Z,31.40
2019-02-28T00:58:43.752Z,31.50
2019-02-28T00:58:55.498Z,31.50
2019-02-28T00:59:07.291Z,31.50
2019-02-28T00:59:19.034Z,31.60
2019-02-28T00:59:33.114Z,31.80
2019-02-28T00:59:44.864Z,31.60
2019-02-28T00:59:56.669Z,31.60
2019-02-28T01:00:08.414Z,31.70
2019-02-28T01:00:20.160Z,31.60
2019-02-28T01:00:37.048Z,32.20
2019-02-28T01:00:46.001Z,31.50
2019-02-28T01:00:57.776Z,31.40
2019-02-28T01:01:11.503Z,31.30
2019-02-28T01:01:23.638Z,31.20
2019-02-28T01:01:35.392Z,31.10
2019-02-28T01:01:47.139Z,31.10
2019-02-28T01:01:58.886Z,31.20
2019-02-28T01:02:12.963Z,31.60
2019-02-28T01:02:24.707Z,31.50
2019-02-28T01:02:36.455Z,31.80
2019-02-28T01:02:52.021Z,31.80
2019-02-28T01:02:59.955Z,31.70
2019-02-28T01:03:11.695Z,31.60
2019-02-28T01:03:27.413Z,31.60
2019-02-28T01:03:40.012Z,31.50
2019-02-28T01:03:51.762Z,31.50
2019-02-28T01:04:03.509Z,31.40
2019-02-28T01:04:17.586Z,31.40
2019-02-28T01:04:30.706Z,31.40
2019-02-28T01:04:41.087Z,31.30
2019-02-28T01:04:55.168Z,31.10
2019-02-28T01:05:06.931Z,31.00
2019-02-28T01:05:18.679Z,31.00
2019-02-28T01:05:32.754Z,31.10
2019-02-28T01:05:44.501Z,31.10
2019-02-28T01:05:56.452Z,31.30
2019-02-28T01:06:10.532Z,31.50
2019-02-28T01:06:19.948Z,31.60
2019-02-28T01:06:31.695Z,31.60
2019-02-28T01:06:43.440Z,31.50
2019-02-28T01:06:55.188Z,31.40
2019-02-28T01:07:06.971Z,31.30
2019-02-28T01:07:18.718Z,31.10
2019-02-28T01:07:30.472Z,31.10
2019-02-28T01:07:42.218Z,31.20
2019-02-28T01:07:53.965Z,31.50
2019-02-28T01:08:05.721Z,31.60
2019-02-28T01:08:19.136Z,31.60
2019-02-28T01:08:31.548Z,31.50
2019-02-28T01:08:43.396Z,31.30
2019-02-28T01:08:56.043Z,31.30
2019-02-28T01:09:09.239Z,31.80
2019-02-28T01:09:48.968Z,31.10
2019-02-28T01:10:01.505Z,31.10
2019-02-28T01:10:12.460Z,30.90
2019-02-28T01:10:26.540Z,31.10
2019-02-28T01:10:39.261Z,30.90
2019-02-28T01:10:50.038Z,30.90
2019-02-28T01:11:04.119Z,31.00
2019-02-28T01:11:15.870Z,30.90
2019-02-28T01:11:27.617Z,30.90
2019-02-28T01:11:39.363Z,30.90
2019-02-28T01:11:51.145Z,30.80
2019-02-28T01:12:02.894Z,31.30
2019-02-28T01:12:18.908Z,30.60
2019-02-28T01:12:26.387Z,30.60
2019-02-28T01:12:38.132Z,30.70
2019-02-28T01:12:53.046Z,30.80
2019-02-28T01:13:01.672Z,30.90
2019-02-28T01:13:13.427Z,30.80
2019-02-28T01:13:28.080Z,30.80
2019-02-28T01:13:36.915Z,30.80
2019-02-28T01:13:48.660Z,30.80
2019-02-28T01:14:01.691Z,30.80
2019-02-28T01:14:14.508Z,30.90
2019-02-28T01:14:26.265Z,30.80
2019-02-28T01:14:38.014Z,31.00
2019-02-28T01:14:49.751Z,31.10
2019-02-28T01:15:03.831Z,31.30
2019-02-28T01:15:15.583Z,31.20
2019-02-28T01:15:27.329Z,31.00
2019-02-28T01:15:44.425Z,31.00
2019-02-28T01:15:50.843Z,31.10
2019-02-28T01:16:02.591Z,31.20
2019-02-28T01:16:16.050Z,31.10
2019-02-28T01:16:26.078Z,31.20
2019-02-28T01:16:37.824Z,31.30
2019-02-28T01:16:50.268Z,31.20
2019-02-28T01:17:03.647Z,31.30
2019-02-28T01:17:15.399Z,31.30
2019-02-28T01:17:27.450Z,31.40
2019-02-28T01:17:41.227Z,31.40
2019-02-28T01:17:52.979Z,31.50
2019-02-28T01:18:04.722Z,31.40
2019-02-28T01:18:16.528Z,31.20
2019-02-28T01:18:28.277Z,31.10
2019-02-28T01:18:42.360Z,31.10
2019-02-28T01:18:54.104Z,31.00
2019-02-28T01:19:08.723Z,31.10
2019-02-28T01:19:20.048Z,31.50
2019-02-28T01:19:31.799Z,31.20
2019-02-28T01:19:43.545Z,31.30
2019-02-28T01:19:57.626Z,31.40
2019-02-28T01:20:15.040Z,31.30
2019-02-28T01:20:21.300Z,31.30
2019-02-28T01:20:33.049Z,31.50
2019-02-28T01:20:49.989Z,31.50
2019-02-28T01:20:56.544Z,31.50
2019-02-28T01:21:08.288Z,31.60
2019-02-28T01:21:23.647Z,31.40
2019-02-28T01:21:31.777Z,31.30
2019-02-28T01:21:45.867Z,30.90
2019-02-28T01:21:57.616Z,31.30
2019-02-28T01:22:09.568Z,31.40
2019-02-28T01:22:26.729Z,31.50
2019-02-28T01:22:35.391Z,31.40
2019-02-28T01:22:47.136Z,31.30
2019-02-28T01:22:59.359Z,31.30
2019-02-28T01:23:10.641Z,31.30
2019-02-28T01:23:22.418Z,31.20
2019-02-28T01:23:34.159Z,31.10
2019-02-28T01:23:48.237Z,31.20
2019-02-28T01:24:00.869Z,31.10
2019-02-28T01:24:11.777Z,31.10
2019-02-28T01:24:23.519Z,31.10
2019-02-28T01:24:37.951Z,30.90
2019-02-28T01:24:52.027Z,30.90
2019-02-28T01:25:06.523Z,30.90
2019-02-28T01:25:18.045Z,30.90
2019-02-28T01:25:29.806Z,30.80
2019-02-28T01:25:41.556Z,31.00
2019-02-28T01:25:53.300Z,31.20
2019-02-28T01:26:05.046Z,31.20
2019-02-28T01:26:16.998Z,31.10
2019-02-28T01:26:30.516Z,31.20
2019-02-28T01:26:43.396Z,31.30
2019-02-28T01:26:54.572Z,31.20
2019-02-28T01:27:06.319Z,31.30
2019-02-28T01:27:21.033Z,31.50
2019-02-28T01:27:29.815Z,31.70
2019-02-28T01:27:41.559Z,31.80
2019-02-28T01:27:55.638Z,31.90
2019-02-28T01:28:07.385Z,31.80
2019-02-28T01:28:19.134Z,31.80
2019-02-28T01:28:33.220Z,32.00
2019-02-28T01:28:44.966Z,31.90
2019-02-28T01:29:01.375Z,31.90
2019-02-28T01:29:08.506Z,31.90
2019-02-28T01:29:20.251Z,31.90
2019-02-28T01:29:32.939Z,31.90
2019-02-28T01:29:43.744Z,31.80
2019-02-28T01:29:55.493Z,31.90
2019-02-28T01:30:09.726Z,32.00
2019-02-28T01:30:23.806Z,31.90
2019-02-28T01:30:37.149Z,31.90
2019-02-28T01:30:47.300Z,31.90
2019-02-28T01:30:59.133Z,31.90
2019-02-28T01:31:11.555Z,31.90
2019-02-28T01:31:22.621Z,32.00
2019-02-28T01:31:34.364Z,32.20
2019-02-28T01:31:46.114Z,32.10
2019-02-28T01:31:57.862Z,32.10
2019-02-28T01:32:09.602Z,32.10
2019-02-28T01:32:21.352Z,32.10
2019-02-28T01:32:33.101Z,32.20
2019-02-28T01:32:49.833Z,32.20
2019-02-28T01:32:58.923Z,32.10
2019-02-28T01:33:10.671Z,32.30
2019-02-28T01:33:25.637Z,32.40
2019-02-28T01:33:36.505Z,32.30
2019-02-28T01:33:48.251Z,32.30
2019-02-28T01:34:02.333Z,32.30
2019-02-28T01:34:14.112Z,32.20
2019-02-28T01:34:25.861Z,32.30
2019-02-28T01:34:37.607Z,32.30
2019-02-28T01:34:51.688Z,32.30
2019-02-28T01:35:06.820Z,32.30
2019-02-28T01:35:15.228Z,32.30
2019-02-28T01:35:26.972Z,32.30
2019-02-28T01:35:41.516Z,32.30
2019-02-28T01:35:52.796Z,32.10
2019-02-28T01:36:04.539Z,32.20
2019-02-28T01:36:16.373Z,32.30
2019-02-28T01:36:28.027Z,32.30
2019-02-28T01:36:39.840Z,32.30
2019-02-28T01:36:51.589Z,32.30
2019-02-28T01:37:03.336Z,32.20
2019-02-28T01:37:20.934Z,32.30
2019-02-28T01:37:29.159Z,32.20
2019-02-28T01:37:40.906Z,32.20
2019-02-28T01:37:54.989Z,32.90
2019-02-28T01:38:06.735Z,32.20
2019-02-28T01:38:18.480Z,32.20
2019-02-28T01:38:30.221Z,32.30
2019-02-28T01:38:41.975Z,32.20
2019-02-28T01:38:57.508Z,32.20
2019-02-28T01:39:07.800Z,32.30
2019-02-28T01:39:19.564Z,32.20
2019-02-28T01:39:31.374Z,32.20
2019-02-28T01:39:43.121Z,32.80
2019-02-28T01:39:54.870Z,32.10
2019-02-28T01:40:06.631Z,32.10
2019-02-28T01:40:20.714Z,32.30
2019-02-28T01:40:35.178Z,32.20
2019-02-28T01:40:44.206Z,32.30
2019-02-28T01:40:58.282Z,32.60
2019-02-28T01:41:11.210Z,32.30
2019-02-28T01:41:21.774Z,32.30
2019-02-28T01:41:33.520Z,32.30
2019-02-28T01:41:45.874Z,32.30
2019-02-28T01:41:57.020Z,32.20
2019-02-28T01:42:11.100Z,32.30
2019-02-28T01:42:22.856Z,32.20
2019-02-28T01:42:34.796Z,32.90
2019-02-28T01:42:53.590Z,32.30
2019-02-28T01:43:00.619Z,32.30
2019-02-28T01:43:12.385Z,32.30
2019-02-28T01:43:28.786Z,32.40
2019-02-28T01:43:38.218Z,32.30
2019-02-28T01:43:49.965Z,32.30
2019-02-28T01:44:04.044Z,32.30
2019-02-28T01:44:15.788Z,32.20
2019-02-28T01:44:27.534Z,32.30
2019-02-28T01:44:41.780Z,32.90
2019-02-28T01:44:55.860Z,32.40
2019-02-28T01:45:09.951Z,32.30
2019-02-28T01:45:19.355Z,32.30
2019-02-28T01:45:31.117Z,32.30
2019-02-28T01:45:44.223Z,32.40
2019-02-28T01:45:54.610Z,32.30
2019-02-28T01:46:06.354Z,32.30
2019-02-28T01:46:20.439Z,32.30
2019-02-28T01:46:32.183Z,32.20
2019-02-28T01:46:43.929Z,32.20
2019-02-28T01:46:55.672Z,32.30
2019-02-28T01:47:07.418Z,32.30
2019-02-28T01:47:20.130Z,32.30
2019-02-28T01:47:33.294Z,33.00
2019-02-28T01:47:47.376Z,32.10
2019-02-28T01:47:59.122Z,32.30
2019-02-28T01:48:10.867Z,32.40
2019-02-28T01:48:23.682Z,32.50
2019-02-28T01:48:34.356Z,32.40
2019-02-28T01:48:46.101Z,32.40
2019-02-28T01:49:00.182Z,32.20
2019-02-28T01:49:11.970Z,32.30
2019-02-28T01:49:25.839Z,32.30
2019-02-28T01:49:35.458Z,32.30
2019-02-28T01:49:49.549Z,32.40
2019-02-28T01:50:01.284Z,32.30
2019-02-28T01:50:13.028Z,33.00
2019-02-28T01:50:48.076Z,32.10
2019-02-28T01:51:00.817Z,32.20
2019-02-28T01:51:11.562Z,32.40
2019-02-28T01:51:23.311Z,32.30
2019-02-28T01:51:36.678Z,32.40
2019-02-28T01:51:46.798Z,32.40
2019-02-28T01:51:58.543Z,32.40
2019-02-28T01:52:10.804Z,32.40
2019-02-28T01:52:24.379Z,32.50
2019-02-28T01:52:36.125Z,32.40
2019-02-28T01:52:47.875Z,32.40
2019-02-28T01:53:01.952Z,32.50
2019-02-28T01:53:18.684Z,32.30
2019-02-28T01:53:25.483Z,32.40
2019-02-28T01:53:37.230Z,32.50
2019-02-28T01:53:53.649Z,32.50
2019-02-28T01:54:05.441Z,32.60
2019-02-28T01:54:17.200Z,32.50
2019-02-28T01:54:28.943Z,33.10
2019-02-28T01:54:43.033Z,32.50
2019-02-28T01:54:54.775Z,32.40
2019-02-28T01:55:06.525Z,32.30
2019-02-28T01:55:20.640Z,33.00
2019-02-28T01:55:32.385Z,32.20
2019-02-28T01:55:44.131Z,32.20
2019-02-28T01:55:55.879Z,32.30
2019-02-28T01:56:09.959Z,32.20
2019-02-28T01:56:21.708Z,32.10
2019-02-28T01:56:34.237Z,32.30
2019-02-28T01:56:45.211Z,32.30
2019-02-28T01:56:56.955Z,32.40
2019-02-28T01:57:09.989Z,32.50
2019-02-28T01:57:20.637Z,32.50
2019-02-28T01:57:32.383Z,32.50
2019-02-28T01:57:44.465Z,32.50
2019-02-28T01:57:55.871Z,32.50
2019-02-28T01:58:07.875Z,32.60
2019-02-28T01:58:21.961Z,32.60
2019-02-28T01:58:33.748Z,32.50
2019-02-28T01:58:47.598Z,32.50
2019-02-28T01:58:57.436Z,32.60
2019-02-28T01:59:11.518Z,32.70
2019-02-28T01:59:23.270Z,32.60
2019-02-28T01:59:35.017Z,32.60
2019-02-28T01:59:49.097Z,32.40
2019-02-28T02:00:00.843Z,32.40
2019-02-28T02:00:12.905Z,32.40
2019-02-28T02:00:27.244Z,32.10
2019-02-28T02:00:41.885Z,32.70
2019-02-28T02:00:57.407Z,32.50
2019-02-28T02:01:10.967Z,32.60
2019-02-28T02:01:25.301Z,32.50
2019-02-28T02:01:39.770Z,32.60
2019-02-28T02:01:52.136Z,32.50
2019-02-28T02:02:07.041Z,33.00
2019-02-28T02:02:18.758Z,32.60
2019-02-28T02:02:33.094Z,32.70
2019-02-28T02:02:47.427Z,33.00
2019-02-28T02:03:02.790Z,32.60
2019-02-28T02:03:17.433Z,32.60
2019-02-28T02:03:31.984Z,32.60
2019-02-28T02:03:47.034Z,32.70
2019-02-28T02:04:01.669Z,32.60
2019-02-28T02:04:16.418Z,32.60
2019-02-28T02:04:30.854Z,32.70
2019-02-28T02:04:45.752Z,32.60
2019-02-28T02:04:59.167Z,32.50
2019-02-28T02:05:10.994Z,32.60
2019-02-28T02:05:25.433Z,32.60
2019-02-28T02:05:40.281Z,33.00
2019-02-28T02:05:54.591Z,32.30
2019-02-28T02:06:06.803Z,32.50
2019-02-28T02:06:22.483Z,32.20
2019-02-28T02:06:35.826Z,33.20
2019-02-28T02:06:47.762Z,32.50
2019-02-28T02:07:01.957Z,32.70
2019-02-28T02:07:14.387Z,32.70
2019-02-28T02:07:30.537Z,33.40
2019-02-28T02:07:43.161Z,32.70
2019-02-28T02:07:57.285Z,32.70
2019-02-28T02:08:09.173Z,32.60
2019-02-28T02:08:23.249Z,32.60
2019-02-28T02:08:37.820Z,32.50
2019-02-28T02:08:50.237Z,32.40
2019-02-28T02:09:05.083Z,32.70
2019-02-28T02:09:19.521Z,33.40
2019-02-28T02:09:33.756Z,32.20
2019-02-28T02:09:47.836Z,32.70
2019-02-28T02:09:59.579Z,32.70
2019-02-28T02:10:11.337Z,32.70
2019-02-28T02:10:25.429Z,32.60
2019-02-28T02:10:37.189Z,32.70
2019-02-28T02:10:48.919Z,32.60
2019-02-28T02:11:02.997Z,33.40
2019-02-28T02:11:14.744Z,32.70
2019-02-28T02:11:26.795Z,32.60
2019-02-28T02:11:40.577Z,32.70
2019-02-28T02:11:52.327Z,32.70
2019-02-28T02:12:04.068Z,32.60
2019-02-28T02:12:15.813Z,32.50
2019-02-28T02:12:31.311Z,32.30
2019-02-28T02:12:39.306Z,32.30
2019-02-28T02:12:53.385Z,32.70
2019-02-28T02:13:05.129Z,32.50
2019-02-28T02:13:16.873Z,32.60
2019-02-28T02:13:28.765Z,32.60
2019-02-28T02:13:42.851Z,32.60
2019-02-28T02:13:54.588Z,32.50
2019-02-28T02:14:07.428Z,32.50
2019-02-28T02:14:18.076Z,32.50
2019-02-28T02:14:29.826Z,32.40
2019-02-28T02:14:44.653Z,32.30
2019-02-28T02:14:55.654Z,32.50
2019-02-28T02:15:07.580Z,32.50
2019-02-28T02:15:21.678Z,32.50
2019-02-28T02:15:33.418Z,32.40
2019-02-28T02:15:45.165Z,32.50
2019-02-28T02:15:59.245Z,32.60
2019-02-28T02:16:11.034Z,32.50
2019-02-28T02:16:26.814Z,32.60
2019-02-28T02:16:34.624Z,32.60
2019-02-28T02:16:48.704Z,32.50
2019-02-28T02:17:01.224Z,32.70
2019-02-28T02:17:12.198Z,32.70
2019-02-28T02:17:26.281Z,33.00
2019-02-28T02:17:38.027Z,32.60
2019-02-28T02:17:49.783Z,32.60
2019-02-28T02:18:01.515Z,32.60
2019-02-28T02:18:13.271Z,32.50
2019-02-28T02:18:25.011Z,32.50
2019-02-28T02:18:40.265Z,32.70
2019-02-28T02:18:53.324Z,33.00
2019-02-28T02:19:05.152Z,32.60
2019-02-28T02:19:19.284Z,33.10
2019-02-28T02:19:33.362Z,32.90
2019-02-28T02:19:45.106Z,32.60
2019-02-28T02:19:56.856Z,32.60
2019-02-28T02:20:08.665Z,32.70
2019-02-28T02:20:20.352Z,32.70
2019-02-28T02:20:32.098Z,32.70
2019-02-28T02:20:46.176Z,32.70
2019-02-28T02:21:00.174Z,32.70
2019-02-28T02:21:09.673Z,32.70
2019-02-28T02:21:21.422Z,32.80
2019-02-28T02:21:34.877Z,32.90
2019-02-28T02:21:44.937Z,32.80
2019-02-28T02:21:56.684Z,32.80
2019-02-28T02:22:10.777Z,32.90
2019-02-28T02:22:22.515Z,32.80
2019-02-28T02:22:34.255Z,32.80
2019-02-28T02:22:48.335Z,32.30
2019-02-28T02:23:00.091Z,32.80
2019-02-28T02:23:11.839Z,32.90
2019-02-28T02:23:25.918Z,33.00
2019-02-28T02:23:37.660Z,32.90
2019-02-28T02:23:49.675Z,32.90
2019-02-28T02:24:01.152Z,32.90
2019-02-28T02:24:12.948Z,32.90
2019-02-28T02:24:27.921Z,32.90
2019-02-28T02:24:36.480Z,32.90
2019-02-28T02:24:48.225Z,32.90
2019-02-28T02:25:02.939Z,32.90
2019-02-28T02:25:11.765Z,32.90
2019-02-28T02:25:23.513Z,32.90
2019-02-28T02:25:37.473Z,33.00
2019-02-28T02:25:47.004Z,32.90
2019-02-28T02:25:58.761Z,32.90
2019-02-28T02:26:12.827Z,33.00
2019-02-28T02:26:24.572Z,32.90
2019-02-28T02:26:36.318Z,32.90
2019-02-28T02:26:48.064Z,33.00
2019-02-28T02:26:59.811Z,32.90
2019-02-28T02:27:11.605Z,33.00
2019-02-28T02:27:23.362Z,33.10
2019-02-28T02:27:35.095Z,33.00
2019-02-28T02:27:46.843Z,33.10
2019-02-28T02:27:58.587Z,33.10
2019-02-28T02:28:10.335Z,33.00
2019-02-28T02:28:27.188Z,33.10
2019-02-28T02:28:36.157Z,33.00
2019-02-28T02:28:47.901Z,33.10
2019-02-28T02:29:01.333Z,33.10
2019-02-28T02:29:11.395Z,33.00
2019-02-28T02:29:23.143Z,33.00
2019-02-28T02:29:37.248Z,33.10
2019-02-28T02:29:48.994Z,33.00
2019-02-28T02:30:00.741Z,33.00
2019-02-28T02:30:15.350Z,33.00
2019-02-28T02:30:24.228Z,33.10
2019-02-28T02:30:35.979Z,33.00
2019-02-28T02:30:51.013Z,33.00
2019-02-28T02:31:01.822Z,33.00
2019-02-28T02:31:13.565Z,32.90
2019-02-28T02:31:28.695Z,32.90
2019-02-28T02:31:39.403Z,33.10
2019-02-28T02:31:51.141Z,32.90
2019-02-28T02:32:02.889Z,33.00
2019-02-28T02:32:16.971Z,33.10
2019-02-28T02:32:28.721Z,32.90
2019-02-28T02:32:40.462Z,32.90
2019-02-28T02:32:54.548Z,33.60
2019-02-28T02:33:06.379Z,32.90
2019-02-28T02:33:20.467Z,33.00
2019-02-28T02:33:32.215Z,32.90
2019-02-28T02:33:51.135Z,32.90
2019-02-28T02:33:58.037Z,33.00
2019-02-28T02:34:09.967Z,32.90
2019-02-28T02:34:24.323Z,32.70
2019-02-28T02:34:35.805Z,32.90
2019-02-28T02:34:47.537Z,32.90
2019-02-28T02:35:06.269Z,33.00
2019-02-28T02:35:11.026Z,32.90
2019-02-28T02:35:22.777Z,33.00
2019-02-28T02:35:42.257Z,33.10
2019-02-28T02:35:48.597Z,33.00
2019-02-28T02:36:00.357Z,33.00
2019-02-28T02:36:16.350Z,33.10
2019-02-28T02:36:26.223Z,33.10
2019-02-28T02:36:37.967Z,33.00
2019-02-28T02:36:54.247Z,33.00
2019-02-28T02:37:03.813Z,33.10
2019-02-28T02:37:15.567Z,33.00
2019-02-28T02:37:30.304Z,33.00
2019-02-28T02:37:39.107Z,33.10
2019-02-28T02:37:50.860Z,33.10
2019-02-28T02:38:04.976Z,33.10
2019-02-28T02:38:16.682Z,33.00
2019-02-28T02:38:28.426Z,33.00
2019-02-28T02:38:42.560Z,33.10
2019-02-28T02:38:54.282Z,33.00
2019-02-28T02:39:06.036Z,33.00
2019-02-28T02:39:17.944Z,33.60
2019-02-28T02:39:31.874Z,33.10
2019-02-28T02:39:43.616Z,33.00
2019-02-28T02:39:55.364Z,33.00